Date,TemperatureHighF,TemperatureAvgF,TemperatureLowF,DewpointHighF,DewpointAvgF,DewpointLowF,HumidityHigh,HumidityAvg,HumidityLow,PressureMaxIn,PressureMinIn,WindSpeedMaxMPH,WindSpeedAvgMPH,GustSpeedMaxMPH,PrecipitationSumIn
2013-3-1,76,57,40,51,44,38,92,67,36,30.42,30.21,6,1,6,0.00
2013-3-2,83,62,42,54,46,40,92,59,25,30.26,30.02,6,1,6,0.00
2013-3-3,72,62,52,49,44,39,76,52,38,30.09,29.94,8,1,8,0.00
2013-3-4,73,58,44,51,47,42,95,69,38,30.11,29.98,5,1,5,0.00
2013-3-5,74,58,44,51,45,40,91,65,41,30.06,29.87,10,1,10,0.00
2013-3-6,67,54,46,49,45,39,87,72,46,30.08,29.97,8,1,8,0.01
2013-3-7,64,53,46,48,45,43,90,75,48,29.98,29.80,7,1,7,0.01
2013-3-8,49,46,42,47,44,40,95,91,84,30.05,29.77,5,1,5,0.61
2013-3-9,60,50,45,48,44,42,95,83,58,30.32,30.05,4,1,4,0.03
2013-3-10,71,54,40,49,44,38,95,71,42,30.36,30.22,7,1,7,0.00
2013-3-11,73,55,40,53,47,39,97,77,48,30.26,30.08,4,1,4,0.00
2013-3-12,78,59,43,56,50,41,97,74,43,30.14,30.02,5,1,5,0.00
2013-3-13,87,64,46,59,53,45,97,71,31,30.17,30.00,7,1,7,0.00
2013-3-14,86,66,49,61,55,47,93,71,38,30.10,30.00,7,1,7,0.00
2013-3-15,81,66,55,61,57,53,94,75,43,30.06,29.95,5,1,5,0.00
2013-3-16,80,63,50,59,54,48,96,74,43,30.04,29.92,4,1,4,0.00
2013-3-17,76,60,47,52,49,45,95,70,40,30.08,29.96,7,1,7,0.00
2013-3-18,73,58,45,48,46,42,94,67,36,30.10,29.98,4,1,4,0.00
2013-3-19,80,63,46,50,46,40,92,59,26,30.12,30.00,8,1,8,0.00
2013-3-20,71,62,54,55,52,48,87,71,53,30.11,30.00,14,1,14,0.00
2013-3-21,57,52,49,52,49,44,96,89,64,30.04,29.95,1,0,1,0.00
2013-3-22,70,54,43,45,41,38,88,65,36,30.04,29.94,5,1,5,0.00
2013-3-23,72,54,40,58,38,32,84,58,27,30.13,30.00,5,1,5,0.00
2013-3-24,77,58,42,46,42,38,87,59,31,30.09,29.92,5,1,5,0.00
2013-3-25,79,58,45,49,45,42,89,67,31,29.98,29.85,5,0,5,0.00
2013-3-26,79,62,47,53,48,42,86,63,35,29.95,29.84,5,1,5,0.00
2013-3-27,78,64,52,53,49,45,79,61,34,29.98,29.87,6,1,6,0.00
2013-3-28,76,62,52,57,52,48,87,72,48,30.06,29.97,5,1,5,0.00
2013-3-29,83,65,48,56,51,45,90,63,30,30.08,29.93,5,1,5,0.00
2013-3-30,87,70,57,57,51,46,76,54,24,30.02,29.86,10,1,10,0.00
2013-3-31,74,65,56,57,52,48,95,66,45,30.07,29.96,7,1,7,0.11